createdAt,value
2023-04-05T00:02:33.347Z,44.98
2023-04-05T00:07:34.910Z,45.06
2023-04-05T00:12:36.235Z,44.98
2023-04-05T00:17:37.937Z,45.36
2023-04-05T00:22:41.859Z,45.17
2023-04-05T00:27:44.479Z,45.05
2023-04-05T00:32:48.058Z,45.11
2023-04-05T00:37:49.393Z,45.37
2023-04-05T00:42:50.859Z,45.52
2023-04-05T00:47:52.319Z,45.63
2023-04-05T00:52:54.082Z,45.32
2023-04-05T00:57:59.014Z,45.21
2023-04-05T01:03:03.452Z,45.22
2023-04-05T01:08:15.966Z,45.19
2023-04-05T01:13:17.690Z,45.45
2023-04-05T01:18:19.303Z,45.17
2023-04-05T01:23:32.996Z,44.92
2023-04-05T01:29:25.452Z,44.64
2023-04-05T01:34:56.252Z,44.78
2023-04-05T01:39:58.881Z,44.40
2023-04-05T01:45:00.272Z,44.62
2023-04-05T01:50:01.695Z,44.05
2023-04-05T01:55:03.563Z,44.26
2023-04-05T02:00:05.262Z,44.44
2023-04-05T02:05:07.140Z,45.08
2023-04-05T02:10:08.994Z,44.80
2023-04-05T02:15:10.647Z,45.42
2023-04-05T02:20:14.480Z,45.63
2023-04-05T02:25:16.450Z,45.68
2023-04-05T02:30:17.875Z,45.43
2023-04-05T02:35:21.143Z,45.46
2023-04-05T02:40:23.116Z,45.49
2023-04-05T02:45:25.002Z,45.89
2023-04-05T02:50:26.489Z,45.98
2023-04-05T02:55:30.921Z,46.39
2023-04-05T03:00:32.516Z,45.95
2023-04-05T03:05:33.881Z,46.26
2023-04-05T03:10:37.155Z,46.05
2023-04-05T03:15:38.708Z,46.39
2023-04-05T03:20:40.394Z,46.40
2023-04-05T03:25:42.104Z,46.67
2023-04-05T03:30:43.792Z,46.64
2023-04-05T03:35:45.484Z,46.40
2023-04-05T03:40:46.876Z,47.33
2023-04-05T03:45:48.422Z,47.71
2023-04-05T03:50:50.441Z,47.93
2023-04-05T03:55:54.028Z,48.19
2023-04-05T04:00:56.762Z,48.04
2023-04-05T04:05:58.275Z,47.66
2023-04-05T04:11:00.022Z,47.46
2023-04-05T04:16:01.420Z,47.47
2023-04-05T04:21:07.092Z,47.92
2023-04-05T04:26:09.624Z,48.79
2023-04-05T04:31:14.264Z,48.89
2023-04-05T04:36:18.008Z,49.44
2023-04-05T04:41:22.956Z,49.47
2023-04-05T04:46:30.558Z,49.64
2023-04-05T04:51:33.128Z,49.39
2023-04-05T04:56:34.753Z,49.58
2023-04-05T05:01:40.807Z,49.50
2023-04-05T05:06:42.178Z,49.87
2023-04-05T05:11:43.608Z,50.33
2023-04-05T05:16:45.821Z,50.30
2023-04-05T05:21:49.636Z,50.28
2023-04-05T05:26:51.226Z,50.24
2023-04-05T05:31:52.558Z,50.46
2023-04-05T05:36:57.505Z,50.47
2023-04-05T05:41:58.886Z,50.49
2023-04-05T05:47:00.431Z,50.29
2023-04-05T05:52:03.545Z,50.11
2023-04-05T05:57:04.981Z,50.24
2023-04-05T06:02:06.370Z,49.61
2023-04-05T06:07:07.729Z,49.39
2023-04-05T06:12:09.331Z,49.21
2023-04-05T06:17:10.853Z,48.80
2023-04-05T06:22:12.213Z,48.44
2023-04-05T06:27:14.651Z,48.15
2023-04-05T06:32:16.042Z,46.87
2023-04-05T06:37:17.462Z,46.29
2023-04-05T06:42:18.799Z,45.86
2023-04-05T06:47:20.282Z,45.09
2023-04-05T06:52:21.636Z,44.34
2023-04-05T06:57:22.963Z,43.80
2023-04-05T07:02:24.520Z,43.48
2023-04-05T07:07:26.069Z,43.20
2023-04-05T07:12:27.529Z,44.17
2023-04-05T07:17:29.012Z,42.85
2023-04-05T07:22:30.361Z,42.66
2023-04-05T07:27:31.890Z,41.47
2023-04-05T07:32:34.548Z,41.31
2023-04-05T07:37:36.130Z,41.29
2023-04-05T07:42:37.692Z,41.38
2023-04-05T07:47:39.795Z,41.23
2023-04-05T07:52:41.940Z,41.19
2023-04-05T07:57:43.330Z,41.29
2023-04-05T08:02:44.879Z,41.13
2023-04-05T08:07:46.235Z,40.79
2023-04-05T08:12:47.565Z,40.69
2023-04-05T08:17:48.901Z,41.36
2023-04-05T08:22:50.275Z,40.21
2023-04-05T08:27:51.617Z,40.29
2023-04-05T08:32:53.467Z,40.25
2023-04-05T08:37:54.806Z,38.86
2023-04-05T08:43:07.909Z,39.12
2023-04-05T08:48:09.315Z,38.33
2023-04-05T08:53:10.822Z,37.09
2023-04-05T08:58:14.418Z,35.87
2023-04-05T09:03:24.068Z,35.01
2023-04-05T09:08:25.556Z,34.63
2023-04-05T09:13:26.831Z,34.28
2023-04-05T09:18:28.297Z,32.31
2023-04-05T09:23:29.687Z,32.10
2023-04-05T09:28:42.476Z,31.24
2023-04-05T09:33:43.965Z,31.74
2023-04-05T09:38:46.571Z,31.74
2023-04-05T09:43:47.865Z,30.65
2023-04-05T09:48:51.027Z,30.76
2023-04-05T09:54:06.589Z,28.57
2023-04-05T09:59:13.472Z,29.21
2023-04-05T10:04:15.052Z,29.51
2023-04-05T10:09:17.983Z,27.60
2023-04-05T10:14:19.784Z,27.42
2023-04-05T10:19:29.062Z,25.38
2023-04-05T10:24:54.200Z,19.96
2023-04-05T10:30:08.780Z,18.63
2023-04-05T10:35:17.138Z,18.05
2023-04-05T10:40:24.236Z,19.93
2023-04-05T10:45:27.378Z,21.50
2023-04-05T10:50:29.646Z,18.59
2023-04-05T10:55:31.600Z,15.28
2023-04-05T11:00:33.987Z,13.85
2023-04-05T11:05:37.385Z,12.67
2023-04-05T11:10:39.662Z,11.62
2023-04-05T11:15:41.356Z,10.62
2023-04-05T11:20:52.568Z,10.66
2023-04-05T11:25:57.557Z,10.19
2023-04-05T11:31:13.155Z,9.46
2023-04-05T11:36:29.780Z,8.96
2023-04-05T11:41:33.633Z,9.17
2023-04-05T11:46:35.756Z,8.99
2023-04-05T11:51:37.642Z,8.70
2023-04-05T11:56:38.961Z,8.12
2023-04-05T12:01:44.909Z,9.29
2023-04-05T12:06:46.206Z,8.91
2023-04-05T12:11:55.122Z,8.92
2023-04-05T12:16:56.537Z,8.53
2023-04-05T12:21:57.994Z,8.43
2023-04-05T12:27:01.192Z,7.78
2023-04-05T12:32:04.347Z,8.13
2023-04-05T12:37:05.892Z,7.96
2023-04-05T12:42:07.225Z,8.17
2023-04-05T12:47:10.978Z,8.47
2023-04-05T12:52:19.863Z,8.72
2023-04-05T12:57:31.950Z,10.52
2023-04-05T13:02:33.393Z,13.42
2023-04-05T13:07:34.752Z,13.77
2023-04-05T13:12:36.535Z,14.04
2023-04-05T13:17:38.108Z,13.74
2023-04-05T13:22:39.753Z,14.08
2023-04-05T13:27:41.249Z,15.52
2023-04-05T13:32:42.657Z,16.21
2023-04-05T13:37:44.117Z,16.36
2023-04-05T13:42:45.874Z,15.60
2023-04-05T13:47:47.248Z,15.36
2023-04-05T13:52:48.783Z,14.87
2023-04-05T13:57:50.110Z,15.44
2023-04-05T14:02:51.905Z,16.04
2023-04-05T14:07:53.267Z,15.55
2023-04-05T14:12:54.592Z,17.45
2023-04-05T14:17:55.985Z,16.93
2023-04-05T14:22:58.689Z,16.31
2023-04-05T14:28:01.668Z,17.33
2023-04-05T14:33:03.231Z,18.11
2023-04-05T14:38:04.665Z,18.05
2023-04-05T14:43:06.275Z,18.81
2023-04-05T14:48:07.765Z,19.52
2023-04-05T14:53:10.398Z,18.28
2023-04-05T14:58:14.191Z,18.56
2023-04-05T15:03:16.351Z,19.21
2023-04-05T15:08:17.814Z,19.91
2023-04-05T15:13:20.742Z,19.59
2023-04-05T15:18:22.116Z,20.66
2023-04-05T15:23:23.788Z,20.22
2023-04-05T15:28:25.184Z,20.50
2023-04-05T15:33:26.568Z,20.61
2023-04-05T15:38:28.253Z,21.76
2023-04-05T15:43:31.679Z,22.23
2023-04-05T15:48:33.060Z,22.51
2023-04-05T15:53:34.446Z,22.02
2023-04-05T15:58:37.253Z,22.41
2023-04-05T16:03:39.085Z,22.84
2023-04-05T16:08:40.616Z,22.95
2023-04-05T16:13:42.086Z,23.45
2023-04-05T16:18:43.501Z,24.13
2023-04-05T16:23:46.451Z,24.05
2023-04-05T16:28:48.100Z,24.05
2023-04-05T16:33:49.649Z,24.57
2023-04-05T16:38:51.857Z,24.60
2023-04-05T16:43:53.301Z,24.44
2023-04-05T16:48:54.743Z,24.53
2023-04-05T16:53:56.155Z,24.40
2023-04-05T16:58:58.292Z,24.07
2023-04-05T17:04:00.078Z,24.61
2023-04-05T17:09:01.845Z,24.36
2023-04-05T17:14:03.474Z,24.54
2023-04-05T17:19:05.300Z,24.37
2023-04-05T17:24:07.420Z,24.16
2023-04-05T17:29:08.805Z,24.15
2023-04-05T17:34:13.266Z,24.37
2023-04-05T17:39:16.085Z,25.44
2023-04-05T17:44:17.570Z,25.36
2023-04-05T17:49:19.455Z,24.92
2023-04-05T17:54:20.982Z,24.86
2023-04-05T17:59:22.995Z,25.17
2023-04-05T18:04:25.590Z,25.75
2023-04-05T18:09:27.974Z,26.05
2023-04-05T18:14:30.227Z,26.02
2023-04-05T18:19:32.243Z,26.44
2023-04-05T18:24:33.797Z,27.21
2023-04-05T18:29:37.973Z,26.82
2023-04-05T18:34:39.427Z,27.37
2023-04-05T18:39:41.136Z,27.99
2023-04-05T18:44:42.593Z,28.44
2023-04-05T18:49:44.022Z,28.62
2023-04-05T18:54:45.444Z,28.46
2023-04-05T18:59:46.812Z,29.61
2023-04-05T19:04:48.380Z,30.01
2023-04-05T19:09:49.727Z,30.72
2023-04-05T19:14:51.758Z,30.19
2023-04-05T19:19:53.167Z,31.39
2023-04-05T19:24:54.725Z,31.74
2023-04-05T19:29:56.927Z,32.72
2023-04-05T19:34:59.531Z,32.67
2023-04-05T19:40:01.634Z,33.06
2023-04-05T19:45:07.968Z,33.17
2023-04-05T19:50:46.889Z,33.63
2023-04-05T19:55:48.442Z,33.25
2023-04-05T20:00:53.664Z,33.20
2023-04-05T20:06:06.027Z,32.45
2023-04-05T20:11:17.290Z,31.23
2023-04-05T20:16:25.598Z,32.23
2023-04-05T20:21:27.192Z,31.84
2023-04-05T20:26:33.276Z,32.12
2023-04-05T20:31:39.316Z,32.20
2023-04-05T20:36:51.788Z,33.16
2023-04-05T20:41:53.840Z,33.00
2023-04-05T20:46:57.201Z,32.80
2023-04-05T20:51:58.796Z,33.26
2023-04-05T20:57:00.205Z,34.21
2023-04-05T21:02:01.701Z,34.79
2023-04-05T21:07:03.895Z,34.56
2023-04-05T21:12:05.898Z,34.75
2023-04-05T21:17:07.242Z,34.60
2023-04-05T21:22:08.647Z,35.03
2023-04-05T21:27:09.996Z,34.92
2023-04-05T21:32:11.450Z,35.74
2023-04-05T21:37:12.816Z,36.13
2023-04-05T21:42:14.331Z,35.24
2023-04-05T21:47:17.422Z,35.82
2023-04-05T21:52:18.832Z,37.36
2023-04-05T21:57:20.228Z,37.85
2023-04-05T22:02:21.774Z,38.25
2023-04-05T22:07:23.363Z,38.23
2023-04-05T22:12:24.998Z,38.88
2023-04-05T22:17:26.507Z,39.34
2023-04-05T22:22:27.860Z,39.03
2023-04-05T22:27:30.113Z,39.51
2023-04-05T22:32:31.643Z,39.20
2023-04-05T22:37:36.327Z,39.34
2023-04-05T22:42:38.888Z,39.72
2023-04-05T22:47:40.390Z,40.22
2023-04-05T22:52:41.817Z,40.40
2023-04-05T22:57:43.909Z,40.81
2023-04-05T23:02:45.376Z,41.07
2023-04-05T23:07:47.109Z,41.59
2023-04-05T23:12:49.079Z,41.19
2023-04-05T23:17:50.681Z,41.52
2023-04-05T23:22:52.112Z,42.13
2023-04-05T23:27:56.312Z,42.23
2023-04-05T23:32:57.795Z,42.53
2023-04-05T23:37:59.220Z,42.30
2023-04-05T23:43:00.767Z,42.82
2023-04-05T23:48:02.503Z,42.91
2023-04-05T23:53:04.015Z,42.58
2023-04-05T23:58:05.897Z,42.46
